Terminal Aerodrome Forecast
Issued by NWS Cleveland, OH

Home | Current Version | Previous Version | Graphics & Text | Print | Product List | Glossary On
Versions: 1 2 3 4 5 6 7 8 9 10 11 12 13 14 15 16 17 18 19 20 21 22 23 24 25 26 27 28 29
200
FTUS41 KCLE 211731
TAFCLE
TAF
KCLE 211731Z 2118/2224 27014G22KT P6SM BKN035
     FM212200 29012KT P6SM SCT025 OVC040
      TEMPO 2200/2203 -SHRA BKN025 OVC040
     FM220300 32010KT P6SM VCSH SCT025 OVC035
      TEMPO 2203/2207 BKN025 OVC035
     FM220700 32008KT P6SM BKN025 OVC035
     FM221400 32008KT P6SM BKN035
     FM221900 32008KT P6SM FEW035=

USA.gov is the U.S. government's official web portal to all federal, state and local government web resources and services.